Time;durP1;ratioP1;P1;durP2;ratioP2;P2;SDS_P1;SDS_P2;PMS_P1;PMS_P2;Temp;Humidity;BMP_temperature;BMP_pressure;BME280_temperature;BME280_humidity;BME280_pressure;Samples;Min_cycle;Max_cycle;Signal;HPM_P1;HPM_P2
2022/03/09 00:01:41;;;;;;;23.40;13.47;;;2.80;59.40;;;;;;5020492;28;20258;-69
2022/03/09 00:04:08;;;;;;;21.60;13.57;;;2.80;59.40;;;;;;5019069;28;20234;-69
2022/03/09 00:06:35;;;;;;;27.57;13.57;;;2.80;59.50;;;;;;5020868;28;20255;-69
2022/03/09 00:09:02;;;;;;;22.40;12.93;;;2.70;59.40;;;;;;5026193;28;20218;-69
2022/03/09 00:11:29;;;;;;;23.23;14.63;;;2.80;59.50;;;;;;5029635;28;20205;-69
2022/03/09 00:13:57;;;;;;;23.30;14.00;;;2.70;59.50;;;;;;5034603;28;20225;-69
2022/03/09 00:16:26;;;;;;;21.17;12.93;;;2.80;59.70;;;;;;5006213;28;20269;-69
2022/03/09 00:18:53;;;;;;;23.20;13.07;;;2.80;59.80;;;;;;5033014;28;20207;-69
2022/03/09 00:21:20;;;;;;;24.67;13.80;;;2.80;59.80;;;;;;5028001;28;20208;-69
2022/03/09 00:23:47;;;;;;;23.23;13.83;;;2.70;59.80;;;;;;5008474;28;20235;-69
2022/03/09 00:26:14;;;;;;;22.77;13.77;;;2.70;60.00;;;;;;5021610;28;20208;-69
2022/03/09 00:28:41;;;;;;;20.17;14.60;;;2.70;60.00;;;;;;5020857;28;20216;-69
2022/03/09 00:31:09;;;;;;;22.30;12.57;;;2.70;60.00;;;;;;5024408;28;20195;-69
2022/03/09 00:33:38;;;;;;;25.57;12.40;;;2.70;60.00;;;;;;5030196;28;20252;-69
2022/03/09 00:36:05;;;;;;;27.60;14.93;;;2.70;59.90;;;;;;5015572;28;20250;-69
2022/03/09 00:38:33;;;;;;;27.57;13.47;;;2.70;60.00;;;;;;5001611;28;20277;-69
2022/03/09 00:41:02;;;;;;;20.67;13.73;;;2.60;60.10;;;;;;5032680;28;20213;-69
2022/03/09 00:43:29;;;;;;;21.00;13.83;;;2.60;60.20;;;;;;5027675;28;20243;-69
2022/03/09 00:45:56;;;;;;;30.40;15.13;;;2.60;60.30;;;;;;5022482;28;20540;-69
2022/03/09 00:48:23;;;;;;;24.20;13.90;;;2.60;60.40;;;;;;5021566;28;20204;-69
2022/03/09 00:50:50;;;;;;;22.53;13.67;;;2.50;60.50;;;;;;5022631;28;20278;-69
2022/03/09 00:53:18;;;;;;;22.87;13.33;;;2.50;60.70;;;;;;5028528;28;20217;-69
2022/03/09 00:55:45;;;;;;;21.33;13.13;;;2.50;60.80;;;;;;5010253;28;20223;-69
2022/03/09 00:58:12;;;;;;;19.47;13.70;;;2.50;61.00;;;;;;5025554;28;20299;-69
2022/03/09 01:00:39;;;;;;;19.20;13.90;;;2.50;60.90;;;;;;5023135;28;20689;-69
2022/03/09 01:03:06;;;;;;;21.57;12.83;;;2.50;61.00;;;;;;5027354;28;20276;-69
2022/03/09 01:05:33;;;;;;;19.10;12.67;;;2.50;61.00;;;;;;5010153;28;20279;-69
2022/03/09 01:08:02;;;;;;;24.30;13.20;;;2.50;61.10;;;;;;5009373;28;20203;-69
2022/03/09 01:10:29;;;;;;;28.10;14.90;;;2.50;61.10;;;;;;4999157;28;20205;-69
2022/03/09 01:12:57;;;;;;;19.93;13.73;;;2.50;61.20;;;;;;5020179;28;20199;-69
2022/03/09 01:15:24;;;;;;;25.87;13.83;;;2.50;61.40;;;;;;5024958;28;20226;-69
2022/03/09 01:17:51;;;;;;;22.23;13.03;;;2.40;61.40;;;;;;5011855;28;20237;-69
2022/03/09 01:20:19;;;;;;;23.57;13.30;;;2.40;61.50;;;;;;5021837;28;20274;-68
2022/03/09 01:22:46;;;;;;;21.60;13.17;;;2.40;61.70;;;;;;5019219;28;20212;-68
2022/03/09 01:25:13;;;;;;;20.17;12.57;;;2.40;61.80;;;;;;5026941;28;20236;-68
2022/03/09 01:27:40;;;;;;;23.03;13.27;;;2.40;61.80;;;;;;5023810;28;20214;-68
2022/03/09 01:30:07;;;;;;;20.00;13.83;;;2.40;61.90;;;;;;5004812;28;20290;-68
2022/03/09 01:32:34;;;;;;;19.33;13.37;;;2.30;61.90;;;;;;5018199;28;20212;-68
2022/03/09 01:35:03;;;;;;;23.17;14.10;;;2.30;61.90;;;;;;5019272;28;20234;-68
2022/03/09 01:37:30;;;;;;;25.20;13.23;;;2.30;62.60;;;;;;5024788;28;20222;-68
2022/03/09 01:39:57;;;;;;;23.03;13.80;;;2.30;62.10;;;;;;5005423;28;20209;-68
2022/03/09 01:42:24;;;;;;;23.60;14.30;;;2.30;62.10;;;;;;5020030;28;20199;-68
2022/03/09 01:44:52;;;;;;;21.87;14.10;;;2.30;62.20;;;;;;5018147;28;20227;-68
2022/03/09 01:47:19;;;;;;;23.53;15.00;;;2.30;62.20;;;;;;5023643;28;20223;-68
2022/03/09 01:49:47;;;;;;;21.53;13.70;;;2.30;62.20;;;;;;5026285;28;20696;-68
2022/03/09 01:52:14;;;;;;;20.27;14.50;;;2.30;62.30;;;;;;5023847;28;20648;-68
2022/03/09 01:54:41;;;;;;;21.47;14.10;;;2.30;62.40;;;;;;5022348;28;20205;-68
2022/03/09 01:57:08;;;;;;;20.17;13.63;;;2.30;62.40;;;;;;5020025;28;20689;-68
2022/03/09 01:59:36;;;;;;;24.13;13.57;;;2.20;62.40;;;;;;5024760;28;20248;-68
2022/03/09 02:02:03;;;;;;;18.63;12.73;;;2.30;62.40;;;;;;5024474;28;20200;-68
2022/03/09 02:04:31;;;;;;;18.70;12.17;;;2.20;62.40;;;;;;5019106;28;20534;-68
2022/03/09 02:06:58;;;;;;;22.73;13.30;;;2.20;62.40;;;;;;5015540;28;20627;-68
2022/03/09 02:12:17;;;;;;;18.37;12.43;;;2.20;62.70;;;;;;5024991;28;20621;-68
2022/03/09 02:14:47;;;;;;;18.63;12.93;;;2.20;62.80;;;;;;5021817;28;20200;-68
2022/03/09 02:17:16;;;;;;;16.73;12.77;;;2.20;63.00;;;;;;5017205;28;20205;-68
2022/03/09 02:19:47;;;;;;;20.10;13.50;;;2.10;63.00;;;;;;5020197;28;20313;-68
2022/03/09 02:22:30;;;;;;;21.10;14.07;;;2.10;63.10;;;;;;5024845;28;20218;-68
2022/03/09 02:24:57;;;;;;;19.53;11.87;;;2.10;63.20;;;;;;5020270;28;20218;-68
2022/03/09 02:27:24;;;;;;;18.40;13.10;;;2.00;63.20;;;;;;5000258;28;20204;-68
2022/03/09 02:29:53;;;;;;;20.23;12.07;;;2.00;63.30;;;;;;5019481;28;20214;-68
2022/03/09 02:32:20;;;;;;;22.20;14.47;;;2.00;63.40;;;;;;5023466;28;20222;-68
2022/03/09 02:34:48;;;;;;;21.67;13.90;;;2.00;63.40;;;;;;5008476;28;20212;-68
2022/03/09 02:37:16;;;;;;;19.50;13.30;;;1.90;63.40;;;;;;5019044;28;20206;-68
2022/03/09 02:39:44;;;;;;;20.87;13.60;;;1.90;63.40;;;;;;5017076;28;20223;-68
2022/03/09 02:42:11;;;;;;;21.47;12.40;;;1.90;63.50;;;;;;5021014;28;20200;-68
2022/03/09 02:44:38;;;;;;;20.57;13.20;;;1.90;63.60;;;;;;5023563;28;20239;-68
2022/03/09 02:47:07;;;;;;;19.63;13.30;;;1.90;63.70;;;;;;5016832;28;20215;-68
2022/03/09 02:49:34;;;;;;;16.27;11.43;;;1.90;63.80;;;;;;5015858;28;20520;-68
2022/03/09 02:52:03;;;;;;;19.93;13.60;;;1.80;63.80;;;;;;5018882;28;20200;-68
2022/03/09 02:54:30;;;;;;;18.53;13.50;;;1.80;63.80;;;;;;5023639;28;20646;-68
2022/03/09 02:56:57;;;;;;;19.90;13.17;;;1.80;63.80;;;;;;5024105;28;20215;-68
2022/03/09 02:59:27;;;;;;;20.73;13.33;;;1.80;64.00;;;;;;5018486;28;20301;-68
2022/03/09 03:01:54;;;;;;;20.63;13.53;;;1.80;64.00;;;;;;5014279;28;20200;-68
2022/03/09 03:04:21;;;;;;;23.50;14.00;;;1.70;64.20;;;;;;5021269;28;20228;-68
2022/03/09 03:06:48;;;;;;;21.00;12.57;;;1.70;64.30;;;;;;5021231;28;20287;-68
2022/03/09 03:09:16;;;;;;;25.50;14.50;;;1.70;64.50;;;;;;5020509;28;20209;-68
2022/03/09 03:11:45;;;;;;;19.20;13.07;;;1.70;64.60;;;;;;5016094;28;20234;-68
2022/03/09 03:14:12;;;;;;;23.13;13.57;;;1.70;64.60;;;;;;5013406;28;20348;-68
2022/03/09 03:16:39;;;;;;;22.30;13.97;;;1.70;64.70;;;;;;5023565;28;20517;-68
2022/03/09 03:19:06;;;;;;;19.30;13.23;;;1.70;64.70;;;;;;5021478;28;20677;-68
2022/03/09 03:21:36;;;;;;;26.23;12.83;;;1.70;64.80;;;;;;5016310;28;20209;-68
2022/03/09 03:24:04;;;;;;;21.10;13.97;;;1.70;64.70;;;;;;5016717;28;20215;-68
2022/03/09 03:26:31;;;;;;;21.43;13.50;;;1.60;64.60;;;;;;5021505;28;20235;-68
2022/03/09 03:28:58;;;;;;;26.77;13.37;;;1.70;64.70;;;;;;5024214;28;20291;-68
2022/03/09 03:31:29;;;;;;;21.20;13.37;;;1.60;64.70;;;;;;5019041;28;20192;-68
2022/03/09 03:33:57;;;;;;;21.77;13.67;;;1.70;64.80;;;;;;5015840;28;20211;-68
2022/03/09 03:36:24;;;;;;;20.00;13.67;;;1.60;64.90;;;;;;5020033;28;20210;-68
2022/03/09 03:38:52;;;;;;;17.97;13.00;;;1.60;64.80;;;;;;5004337;28;20212;-68
2022/03/09 03:41:20;;;;;;;22.60;13.40;;;1.60;64.70;;;;;;5015319;28;20889;-68
2022/03/09 03:43:47;;;;;;;23.50;13.50;;;1.60;64.70;;;;;;5000066;28;20215;-68
2022/03/09 03:46:14;;;;;;;21.70;13.33;;;1.60;64.80;;;;;;5016770;28;20296;-68
2022/03/09 03:48:41;;;;;;;21.77;13.43;;;1.50;65.00;;;;;;5004812;28;20211;-68
2022/03/09 03:51:08;;;;;;;23.87;13.23;;;1.50;65.20;;;;;;5023497;28;20214;-68
2022/03/09 03:53:35;;;;;;;18.53;12.40;;;1.50;65.40;;;;;;5002272;28;20220;-68
2022/03/09 03:56:02;;;;;;;17.73;12.73;;;1.40;65.50;;;;;;5013903;28;20288;-68
2022/03/09 03:58:30;;;;;;;21.10;12.23;;;1.40;65.30;;;;;;5000492;28;20212;-68
2022/03/09 04:00:58;;;;;;;17.07;11.70;;;1.40;65.30;;;;;;5022794;28;20243;-68
2022/03/09 04:03:25;;;;;;;20.73;12.33;;;1.40;65.40;;;;;;5023866;28;20199;-68
2022/03/09 04:05:52;;;;;;;21.90;12.07;;;1.40;65.50;;;;;;5018992;28;20224;-68
2022/03/09 04:08:19;;;;;;;22.30;12.87;;;1.40;65.40;;;;;;5016527;28;20199;-68
2022/03/09 04:10:47;;;;;;;19.47;11.50;;;1.40;65.50;;;;;;5006857;28;20240;-68
2022/03/09 04:13:14;;;;;;;23.60;12.40;;;1.40;65.50;;;;;;4997518;28;20839;-68
2022/03/09 04:15:40;;;;;;;19.03;11.67;;;1.40;65.30;;;;;;5015890;28;20227;-68
2022/03/09 04:18:08;;;;;;;20.23;12.10;;;1.40;65.20;;;;;;5022012;28;20214;-68
2022/03/09 04:20:35;;;;;;;18.70;11.03;;;1.40;65.20;;;;;;5017653;28;20218;-68
2022/03/09 04:23:08;;;;;;;16.80;10.83;;;1.40;65.20;;;;;;5022508;28;20204;-68
2022/03/09 04:25:37;;;;;;;17.50;10.40;;;1.40;65.20;;;;;;5022947;28;20219;-68
2022/03/09 04:28:07;;;;;;;16.27;10.90;;;1.40;65.10;;;;;;5019028;28;20300;-68
2022/03/09 04:30:34;;;;;;;14.20;9.80;;;1.30;65.00;;;;;;5016799;28;20213;-68
2022/03/09 04:33:01;;;;;;;18.20;10.90;;;1.40;65.10;;;;;;5027307;28;20195;-68
2022/03/09 04:35:28;;;;;;;19.60;10.53;;;1.30;65.10;;;;;;5022415;28;20199;-68
2022/03/09 04:37:55;;;;;;;21.20;10.83;;;1.30;65.00;;;;;;5016347;28;20254;-68
2022/03/09 04:40:22;;;;;;;14.27;9.07;;;1.30;65.00;;;;;;5015258;28;20217;-68
2022/03/09 04:42:52;;;;;;;15.07;10.07;;;1.30;65.00;;;;;;5017441;28;20349;-68
2022/03/09 04:45:19;;;;;;;16.63;10.10;;;1.30;64.90;;;;;;5017168;28;20233;-68
2022/03/09 04:47:46;;;;;;;16.60;10.07;;;1.30;64.90;;;;;;5008449;28;20203;-68
2022/03/09 04:50:13;;;;;;;17.53;10.27;;;1.30;64.90;;;;;;5023160;28;20211;-68
2022/03/09 04:52:40;;;;;;;16.67;10.07;;;1.30;64.90;;;;;;5026508;28;20214;-68
2022/03/09 04:55:08;;;;;;;15.90;10.40;;;1.30;64.90;;;;;;5030324;28;20210;-68
2022/03/09 04:57:38;;;;;;;15.67;9.33;;;1.30;65.00;;;;;;5024896;28;20230;-68
2022/03/09 05:00:08;;;;;;;15.73;10.97;;;1.30;64.90;;;;;;5018452;28;20243;-68
2022/03/09 05:02:35;;;;;;;17.63;9.77;;;1.30;64.80;;;;;;5018969;28;20633;-68
2022/03/09 05:05:03;;;;;;;21.77;10.63;;;1.30;64.80;;;;;;5021130;28;20223;-68
2022/03/09 05:07:31;;;;;;;22.53;9.87;;;1.30;64.80;;;;;;5025730;28;20200;-68
2022/03/09 05:09:59;;;;;;;17.53;9.57;;;1.30;64.80;;;;;;5030273;28;20584;-68
2022/03/09 05:12:26;;;;;;;12.90;9.13;;;1.20;64.70;;;;;;5026156;28;20205;-68
2022/03/09 05:14:53;;;;;;;23.27;9.87;;;1.20;64.70;;;;;;5031769;28;20265;-68
2022/03/09 05:17:20;;;;;;;16.17;9.37;;;1.20;64.70;;;;;;5027953;28;20211;-68
2022/03/09 05:19:47;;;;;;;14.70;9.53;;;1.20;64.70;;;;;;5023603;28;20212;-68
2022/03/09 05:22:14;;;;;;;15.50;9.13;;;1.10;64.60;;;;;;5016227;28;20598;-68
2022/03/09 05:24:51;;;;;;;14.17;9.33;;;1.10;64.50;;;;;;5017273;28;20552;-68
2022/03/09 05:27:18;;;;;;;19.40;10.20;;;1.10;64.40;;;;;;5022331;28;20218;-68
2022/03/09 05:29:45;;;;;;;24.03;9.77;;;1.10;64.40;;;;;;5025767;28;20197;-68
2022/03/09 05:32:12;;;;;;;20.03;10.50;;;1.10;64.50;;;;;;5030975;28;20294;-68
2022/03/09 05:34:39;;;;;;;20.50;10.30;;;1.10;64.60;;;;;;5031764;28;20219;-68
2022/03/09 05:37:06;;;;;;;17.43;9.27;;;1.00;64.70;;;;;;5033416;28;20219;-68
2022/03/09 05:39:33;;;;;;;15.23;9.50;;;1.10;64.90;;;;;;5028132;28;20653;-68
2022/03/09 05:42:00;;;;;;;14.27;9.97;;;1.00;65.00;;;;;;5023794;28;21049;-68
2022/03/09 05:44:27;;;;;;;14.80;8.37;;;1.00;65.20;;;;;;5019906;28;20230;-68
2022/03/09 05:46:56;;;;;;;18.07;9.67;;;1.00;65.20;;;;;;5025529;28;20282;-68
2022/03/09 05:49:23;;;;;;;13.70;8.93;;;1.00;65.20;;;;;;5022445;28;20274;-68
2022/03/09 05:51:52;;;;;;;18.43;8.90;;;1.00;65.20;;;;;;5025697;28;20211;-68
2022/03/09 05:54:20;;;;;;;15.90;7.47;;;1.00;65.20;;;;;;5030529;28;20203;-68
2022/03/09 05:56:47;;;;;;;12.90;8.23;;;1.00;65.20;;;;;;5006725;28;20223;-68
2022/03/09 05:59:14;;;;;;;15.17;8.97;;;1.00;65.20;;;;;;5027783;28;20247;-68
2022/03/09 06:01:41;;;;;;;14.40;8.77;;;1.00;65.20;;;;;;5028746;28;20200;-68
2022/03/09 06:04:08;;;;;;;13.37;8.70;;;1.00;65.10;;;;;;5023865;28;20212;-68
2022/03/09 06:06:35;;;;;;;13.27;9.03;;;1.10;65.10;;;;;;5000861;28;20251;-68
2022/03/09 06:09:02;;;;;;;13.23;8.27;;;1.10;65.00;;;;;;4999667;28;20208;-68
2022/03/09 06:11:30;;;;;;;19.20;8.90;;;1.20;65.10;;;;;;5019688;28;20219;-68
2022/03/09 06:13:57;;;;;;;23.93;9.53;;;1.30;65.00;;;;;;5026483;28;20567;-68
2022/03/09 06:16:24;;;;;;;17.63;7.93;;;1.50;64.30;;;;;;5030528;28;20203;-68
2022/03/09 06:18:51;;;;;;;12.27;7.97;;;1.60;63.70;;;;;;5001394;28;20204;-68
2022/03/09 06:21:18;;;;;;;12.73;8.63;;;1.60;63.40;;;;;;5023590;28;20683;-68
2022/03/09 06:23:45;;;;;;;15.23;8.27;;;1.60;63.60;;;;;;5027223;28;20214;-68
2022/03/09 06:26:12;;;;;;;13.73;8.43;;;1.70;63.80;;;;;;5021663;28;20732;-68
2022/03/09 06:28:39;;;;;;;13.00;7.97;;;1.90;63.30;;;;;;5020302;28;20260;-68
2022/03/09 06:31:07;;;;;;;14.33;8.90;;;2.10;62.70;;;;;;5019235;28;20211;-68
2022/03/09 06:33:34;;;;;;;13.83;7.90;;;2.30;62.20;;;;;;5022329;28;20536;-68
2022/03/09 06:36:01;;;;;;;17.23;9.10;;;2.50;61.90;;;;;;5007890;28;20215;-68
2022/03/09 06:38:29;;;;;;;19.00;8.90;;;2.80;61.10;;;;;;5009696;28;20212;-68
2022/03/09 06:40:57;;;;;;;13.63;8.33;;;3.10;60.20;;;;;;5016576;28;20292;-68
2022/03/09 06:43:24;;;;;;;17.43;8.50;;;3.40;59.60;;;;;;4991260;28;20215;-68
2022/03/09 06:45:52;;;;;;;19.90;10.13;;;3.60;58.90;;;;;;5011249;28;20246;-68
2022/03/09 06:48:19;;;;;;;18.80;8.77;;;3.80;58.10;;;;;;5022924;28;20220;-68
2022/03/09 06:50:46;;;;;;;19.83;10.40;;;4.00;58.00;;;;;;5018110;28;20219;-68
2022/03/09 06:53:16;;;;;;;29.90;9.17;;;4.20;57.80;;;;;;5016900;28;20634;-68
2022/03/09 06:55:43;;;;;;;16.10;9.57;;;4.20;57.60;;;;;;5021210;28;20207;-68
2022/03/09 06:58:10;;;;;;;36.03;9.23;;;4.20;57.80;;;;;;5009078;28;20211;-68
2022/03/09 07:00:38;;;;;;;13.97;8.70;;;4.10;58.10;;;;;;5023211;28;20243;-68
2022/03/09 07:03:05;;;;;;;15.40;10.43;;;4.10;58.50;;;;;;5016961;28;20491;-68
2022/03/09 07:05:35;;;;;;;20.70;10.27;;;4.00;58.90;;;;;;5011030;28;20224;-67
2022/03/09 07:08:02;;;;;;;12.07;9.00;;;3.90;59.80;;;;;;5023121;28;20638;-67
2022/03/09 07:10:29;;;;;;;15.90;8.97;;;3.90;59.50;;;;;;5022977;28;20205;-67
2022/03/09 07:12:56;;;;;;;15.93;9.43;;;3.90;59.80;;;;;;4999475;28;20204;-67
2022/03/09 07:15:29;;;;;;;14.17;9.97;;;3.90;60.00;;;;;;5019149;28;20238;-67
2022/03/09 07:17:56;;;;;;;14.43;8.70;;;4.00;60.00;;;;;;5016255;28;20204;-67
2022/03/09 07:20:24;;;;;;;12.40;9.30;;;4.00;59.60;;;;;;5025687;28;20264;-67
2022/03/09 07:22:53;;;;;;;18.67;9.03;;;4.10;59.50;;;;;;5021227;28;20255;-67
2022/03/09 07:25:20;;;;;;;13.07;9.07;;;4.20;59.40;;;;;;5012991;28;20578;-67
2022/03/09 07:27:47;;;;;;;15.80;9.27;;;4.30;59.30;;;;;;5016995;28;20212;-67
2022/03/09 07:30:14;;;;;;;14.20;8.63;;;4.40;59.20;;;;;;5026723;28;20209;-68
2022/03/09 07:32:42;;;;;;;17.90;9.40;;;4.50;59.10;;;;;;5021814;28;20257;-68
2022/03/09 07:35:21;;;;;;;16.93;10.20;;;4.70;59.20;;;;;;4998885;28;20543;-68
2022/03/09 07:37:51;;;;;;;19.47;10.50;;;4.80;58.80;;;;;;5003011;28;20216;-67
2022/03/09 07:40:20;;;;;;;14.30;9.07;;;5.00;58.80;;;;;;5013374;28;20535;-68
2022/03/09 07:42:47;;;;;;;17.73;9.50;;;5.20;58.40;;;;;;5022670;28;20228;-67
2022/03/09 07:45:14;;;;;;;14.87;9.97;;;5.40;58.10;;;;;;5019025;28;20551;-69
2022/03/09 07:47:41;;;;;;;17.40;10.17;;;5.60;57.70;;;;;;5013886;28;20205;-69
2022/03/09 07:50:09;;;;;;;18.57;10.83;;;5.80;57.30;;;;;;5016913;28;20226;-69
2022/03/09 07:52:36;;;;;;;15.87;10.57;;;6.00;57.20;;;;;;5022643;28;20206;-69
2022/03/09 07:55:05;;;;;;;20.37;11.90;;;6.20;57.10;;;;;;5020976;28;20202;-69
2022/03/09 07:57:32;;;;;;;17.87;10.87;;;6.40;56.60;;;;;;5015496;28;20257;-69
2022/03/09 08:00:00;;;;;;;23.00;11.40;;;6.60;56.20;;;;;;5016837;28;20239;-69
2022/03/09 08:02:38;;;;;;;21.87;11.87;;;6.80;56.10;;;;;;5025546;28;20225;-69
2022/03/09 08:05:05;;;;;;;22.10;13.20;;;7.00;55.40;;;;;;5021342;28;20198;-69
2022/03/09 08:07:33;;;;;;;19.87;12.47;;;7.30;55.30;;;;;;5012406;28;20210;-69
2022/03/09 08:10:01;;;;;;;21.47;12.60;;;7.40;54.20;;;;;;4999761;28;20236;-69
2022/03/09 08:12:28;;;;;;;23.17;14.00;;;7.60;53.90;;;;;;5019315;28;20217;-69
2022/03/09 08:14:55;;;;;;;21.93;14.47;;;7.80;53.90;;;;;;5023749;28;20209;-69
2022/03/09 08:17:22;;;;;;;22.77;15.13;;;7.90;53.60;;;;;;5020578;28;20265;-67
2022/03/09 08:19:49;;;;;;;29.00;14.87;;;8.10;53.60;;;;;;5013508;28;20229;-68
2022/03/09 08:22:17;;;;;;;23.87;14.03;;;8.30;53.40;;;;;;5019160;28;20218;-68
2022/03/09 08:24:44;;;;;;;26.10;16.10;;;8.50;52.90;;;;;;5021712;28;20200;-68
2022/03/09 08:27:11;;;;;;;26.67;16.67;;;8.60;52.60;;;;;;5025713;28;20238;-69
2022/03/09 08:29:39;;;;;;;25.67;16.63;;;8.80;52.40;;;;;;5021425;28;20634;-69
2022/03/09 08:32:07;;;;;;;30.57;16.13;;;8.90;51.90;;;;;;5019381;28;20199;-67
2022/03/09 08:34:34;;;;;;;29.97;16.97;;;9.10;51.70;;;;;;5023362;28;20213;-67
2022/03/09 08:37:02;;;;;;;26.13;18.07;;;9.20;51.10;;;;;;5029452;28;20583;-67
2022/03/09 08:39:30;;;;;;;27.90;18.00;;;9.40;51.00;;;;;;5023469;28;20205;-67
2022/03/09 08:41:57;;;;;;;30.23;16.93;;;9.50;50.40;;;;;;5019485;28;20595;-67
2022/03/09 08:44:39;;;;;;;30.13;17.83;;;9.60;50.30;;;;;;5019858;28;20204;-67
2022/03/09 08:47:07;;;;;;;32.20;18.83;;;9.80;48.50;;;;;;5025162;28;20342;-67
2022/03/09 08:49:35;;;;;;;28.07;17.17;;;9.70;49.30;;;;;;5009120;28;20215;-69
2022/03/09 08:52:04;;;;;;;30.23;17.83;;;9.80;49.60;;;;;;5001244;28;20622;-70
2022/03/09 08:54:31;;;;;;;29.17;19.30;;;9.90;49.00;;;;;;5019397;28;20219;-68
2022/03/09 08:56:59;;;;;;;29.87;19.13;;;10.00;49.50;;;;;;5022636;28;20636;-69
2022/03/09 08:59:26;;;;;;;26.33;18.37;;;10.10;49.60;;;;;;5010467;28;20316;-68
2022/03/09 09:01:53;;;;;;;27.77;19.50;;;10.20;50.10;;;;;;5024072;28;20208;-68
2022/03/09 09:04:22;;;;;;;30.83;20.00;;;10.40;48.30;;;;;;5018699;28;20217;-68
2022/03/09 09:06:49;;;;;;;29.70;20.17;;;10.50;48.50;;;;;;5003891;28;20231;-68
2022/03/09 09:09:17;;;;;;;33.93;20.00;;;10.60;48.80;;;;;;5027811;28;20212;-68
2022/03/09 09:11:45;;;;;;;28.83;20.30;;;10.80;48.80;;;;;;5022450;28;20213;-68
2022/03/09 09:14:13;;;;;;;29.27;18.87;;;11.00;48.10;;;;;;5020063;28;20359;-68
2022/03/09 09:16:47;;;;;;;30.03;19.73;;;11.10;47.60;;;;;;5018687;28;20210;-68
2022/03/09 09:19:15;;;;;;;27.30;19.17;;;11.30;47.10;;;;;;5023788;28;20667;-69
2022/03/09 09:21:45;;;;;;;30.07;20.23;;;11.40;47.50;;;;;;5025806;28;20230;-69
2022/03/09 09:24:12;;;;;;;30.83;18.57;;;11.50;46.40;;;;;;5023028;28;20213;-68
2022/03/09 09:26:39;;;;;;;34.63;19.27;;;11.60;46.10;;;;;;5004308;28;20227;-68
2022/03/09 09:29:17;;;;;;;28.23;19.13;;;11.70;45.00;;;;;;5025148;28;20206;-68
2022/03/09 09:31:46;;;;;;;27.83;18.40;;;11.60;45.40;;;;;;5026015;28;20211;-68
2022/03/09 09:34:14;;;;;;;28.23;19.10;;;11.70;45.80;;;;;;5021026;28;20204;-68
2022/03/09 09:36:45;;;;;;;29.67;18.67;;;11.70;44.60;;;;;;5023733;28;20212;-68
2022/03/09 09:39:14;;;;;;;29.00;19.97;;;11.80;44.90;;;;;;5003402;28;20214;-68
2022/03/09 09:41:47;;;;;;;28.77;19.80;;;11.60;43.60;;;;;;5021905;28;20541;-68
2022/03/09 09:44:15;;;;;;;29.73;19.33;;;11.50;44.80;;;;;;5026015;28;20574;-68
2022/03/09 09:46:43;;;;;;;33.57;21.50;;;11.50;45.30;;;;;;5022306;28;20237;-68
2022/03/09 09:49:13;;;;;;;36.23;20.27;;;11.60;45.60;;;;;;5018043;28;20251;-68
2022/03/09 09:51:42;;;;;;;31.70;19.00;;;11.80;45.80;;;;;;5023784;28;20312;-68
2022/03/09 09:54:10;;;;;;;32.83;19.80;;;12.00;45.20;;;;;;5026620;28;20196;-68
2022/03/09 09:56:39;;;;;;;27.80;19.17;;;12.10;44.60;;;;;;5020555;28;20215;-68
2022/03/09 09:59:07;;;;;;;30.80;20.40;;;12.10;42.70;;;;;;5019053;28;20211;-68
2022/03/09 10:01:37;;;;;;;27.90;19.43;;;12.20;43.90;;;;;;5021729;28;20203;-68
2022/03/09 10:04:06;;;;;;;30.57;18.57;;;12.20;43.20;;;;;;5022578;28;20214;-71
2022/03/09 10:06:34;;;;;;;30.77;19.40;;;12.10;43.20;;;;;;5001548;28;20237;-69
2022/03/09 10:09:03;;;;;;;31.07;19.47;;;12.20;43.90;;;;;;5026360;28;20608;-68
2022/03/09 10:11:51;;;;;;;32.37;18.57;;;12.40;41.70;;;;;;5017750;28;20523;-68
2022/03/09 10:14:41;;;;;;;34.73;20.80;;;12.40;41.40;;;;;;5026738;28;20216;-68
2022/03/09 10:17:11;;;;;;;29.43;20.07;;;12.40;41.50;;;;;;5024799;28;20211;-68
2022/03/09 10:19:41;;;;;;;35.90;19.80;;;12.30;40.70;;;;;;5024364;28;20203;-68
2022/03/09 10:22:32;;;;;;;33.27;19.73;;;12.20;42.50;;;;;;5000371;28;20236;-68
2022/03/09 10:25:23;;;;;;;28.80;20.80;;;12.30;41.60;;;;;;5013045;28;20262;-68
2022/03/09 10:27:55;;;;;;;32.53;20.30;;;12.30;42.10;;;;;;5026608;28;20230;-68
2022/03/09 10:30:33;;;;;;;32.03;19.90;;;12.50;42.20;;;;;;5023683;28;20200;-68
2022/03/09 10:33:04;;;;;;;31.83;19.97;;;12.60;41.00;;;;;;5019994;28;20201;-69
2022/03/09 10:35:31;;;;;;;29.63;18.97;;;12.70;42.00;;;;;;5030930;28;20241;-70
2022/03/09 10:37:58;;;;;;;32.00;20.53;;;12.80;41.20;;;;;;5026511;28;20203;-69
2022/03/09 10:40:27;;;;;;;33.13;21.00;;;12.80;39.10;;;;;;5002814;28;20206;-69
2022/03/09 10:43:13;;;;;;;32.40;20.47;;;12.80;40.10;;;;;;5018435;28;20200;-69
2022/03/09 10:46:02;;;;;;;31.03;20.40;;;12.80;40.30;;;;;;5018241;28;20202;-69
2022/03/09 10:48:55;;;;;;;34.00;19.80;;;12.80;41.00;;;;;;5022928;28;20207;-69
2022/03/09 10:51:25;;;;;;;28.00;20.50;;;12.90;39.90;;;;;;4999727;28;20532;-69
2022/03/09 10:53:52;;;;;;;31.37;22.07;;;13.00;39.70;;;;;;5016407;28;20529;-70
2022/03/09 10:56:19;;;;;;;30.33;21.50;;;13.10;40.60;;;;;;5032836;28;20630;-70
2022/03/09 10:58:47;;;;;;;29.37;21.77;;;13.30;41.00;;;;;;5027942;28;20287;-70
2022/03/09 11:01:18;;;;;;;30.77;19.10;;;13.50;41.00;;;;;;5023435;28;20567;-70
2022/03/09 11:03:46;;;;;;;32.17;20.23;;;13.60;38.60;;;;;;5019584;28;20252;-70
2022/03/09 11:06:14;;;;;;;30.60;21.60;;;13.70;39.30;;;;;;5018066;28;20254;-70
2022/03/09 11:08:41;;;;;;;40.97;20.97;;;13.80;39.50;;;;;;5021133;28;20205;-69
2022/03/09 11:11:09;;;;;;;31.47;20.77;;;13.90;38.90;;;;;;5005977;28;20197;-69
2022/03/09 11:13:37;;;;;;;28.97;19.73;;;14.00;39.00;;;;;;5028253;28;20211;-69
2022/03/09 11:16:05;;;;;;;31.37;21.00;;;14.20;36.60;;;;;;5026528;28;20548;-69
2022/03/09 11:18:34;;;;;;;26.20;18.70;;;14.10;36.90;;;;;;5029530;28;20208;-69
2022/03/09 11:21:07;;;;;;;29.43;19.03;;;14.10;36.40;;;;;;5027602;28;20281;-70
2022/03/09 11:23:39;;;;;;;36.17;22.93;;;14.00;35.80;;;;;;5021763;28;20227;-70
2022/03/09 11:26:17;;;;;;;32.60;22.00;;;14.00;36.90;;;;;;5017607;28;20206;-70
2022/03/09 11:28:45;;;;;;;32.40;21.33;;;14.00;37.80;;;;;;5014887;28;20203;-70
2022/03/09 11:31:14;;;;;;;26.47;20.00;;;14.10;37.80;;;;;;5004238;28;20207;-70
2022/03/09 11:33:41;;;;;;;32.67;21.90;;;14.10;37.00;;;;;;4998648;28;20214;-71
2022/03/09 11:36:23;;;;;;;27.53;20.07;;;14.20;36.30;;;;;;5029323;28;20209;-71
2022/03/09 11:39:03;;;;;;;32.87;20.87;;;14.30;38.00;;;;;;5018961;28;20211;-71
2022/03/09 11:41:39;;;;;;;34.23;21.27;;;14.40;38.10;;;;;;5006913;28;20214;-71
2022/03/09 11:44:21;;;;;;;29.50;19.97;;;14.60;38.10;;;;;;5024934;28;20208;-71
2022/03/09 11:47:01;;;;;;;24.97;17.67;;;14.80;36.20;;;;;;5019441;28;20226;-71
2022/03/09 11:49:46;;;;;;;26.83;19.47;;;14.80;34.70;;;;;;5015280;28;20200;-72
2022/03/09 11:52:14;;;;;;;26.10;17.97;;;14.70;35.10;;;;;;5018762;28;20203;-72
2022/03/09 11:54:45;;;;;;;27.83;19.53;;;14.70;35.10;;;;;;5023393;28;20216;-71
2022/03/09 11:57:14;;;;;;;26.47;18.70;;;14.70;36.20;;;;;;5027800;28;20211;-71
2022/03/09 12:00:13;;;;;;;23.20;16.07;;;14.70;36.20;;;;;;5001657;28;20597;-71
2022/03/09 12:02:44;;;;;;;25.70;17.00;;;14.80;36.20;;;;;;5012479;28;20579;-71
2022/03/09 12:05:36;;;;;;;22.77;16.80;;;15.00;36.30;;;;;;5019679;28;20216;-71
2022/03/09 12:08:11;;;;;;;27.73;17.83;;;15.10;34.50;;;;;;5019627;28;20238;-69
2022/03/09 12:10:55;;;;;;;27.87;17.57;;;15.20;33.70;;;;;;5015047;28;20195;-69
2022/03/09 12:13:33;;;;;;;26.07;17.43;;;15.20;34.60;;;;;;5016385;28;20214;-69
2022/03/09 12:16:26;;;;;;;24.13;15.80;;;15.30;33.40;;;;;;5021648;28;20290;-69
2022/03/09 12:18:56;;;;;;;23.47;14.37;;;15.20;33.30;;;;;;5025643;28;20543;-69
2022/03/09 12:21:26;;;;;;;26.60;17.87;;;15.10;32.00;;;;;;5012813;28;20189;-69
2022/03/09 12:24:03;;;;;;;27.50;17.23;;;15.00;33.80;;;;;;4998466;28;20505;-70
2022/03/09 12:26:42;;;;;;;27.20;17.67;;;14.90;34.20;;;;;;5023500;28;20219;-70
2022/03/09 12:29:18;;;;;;;22.47;16.10;;;14.90;33.90;;;;;;5022995;28;20192;-71
2022/03/09 12:31:45;;;;;;;23.00;16.33;;;14.90;34.20;;;;;;5017507;28;20206;-71
2022/03/09 12:34:24;;;;;;;25.47;16.43;;;15.00;33.70;;;;;;5014593;28;20226;-71
2022/03/09 12:36:50;;;;;;;24.77;14.93;;;15.10;33.90;;;;;;5019698;28;20546;-71
2022/03/09 12:39:18;;;;;;;22.67;16.33;;;15.10;34.10;;;;;;5021436;28;20210;-71
2022/03/09 12:41:51;;;;;;;24.93;16.27;;;15.30;34.30;;;;;;5024318;28;20508;-71
2022/03/09 12:44:22;;;;;;;24.90;17.23;;;15.40;34.20;;;;;;5013402;28;20231;-71
2022/03/09 12:46:53;;;;;;;24.47;16.40;;;15.50;33.50;;;;;;5009313;28;20563;-71
2022/03/09 12:49:38;;;;;;;25.97;16.60;;;15.50;32.60;;;;;;5004602;28;20235;-71